createdAt,value
2023-05-02T00:00:29.357Z,11.63
2023-05-02T00:02:56.083Z,10.77
2023-05-02T00:05:23.002Z,10.43
2023-05-02T00:07:51.392Z,10.35
2023-05-02T00:10:18.522Z,11.15
2023-05-02T00:12:45.166Z,9.73
2023-05-02T00:15:11.717Z,9.70
2023-05-02T00:17:40.494Z,9.90
2023-05-02T00:20:09.435Z,9.75
2023-05-02T00:22:36.120Z,9.27
2023-05-02T00:25:02.673Z,9.27
2023-05-02T00:27:30.635Z,9.35
2023-05-02T00:29:58.546Z,8.93
2023-05-02T00:32:26.039Z,8.30
2023-05-02T00:34:53.061Z,9.13
2023-05-02T00:37:19.907Z,8.30
2023-05-02T00:39:46.404Z,7.70
2023-05-02T00:42:13.040Z,9.45
2023-05-02T00:44:40.519Z,8.52
2023-05-02T00:47:07.089Z,7.93
2023-05-02T00:49:33.720Z,8.03
2023-05-02T00:52:00.617Z,8.05
2023-05-02T00:54:27.150Z,9.18
2023-05-02T00:56:53.788Z,9.05
2023-05-02T00:59:20.473Z,9.15
2023-05-02T01:02:13.481Z,9.67
2023-05-02T01:05:03.066Z,9.02
2023-05-02T01:07:56.931Z,9.77
2023-05-02T01:10:39.064Z,9.93
2023-05-02T01:13:17.637Z,10.40
2023-05-02T01:15:45.413Z,10.07
2023-05-02T01:18:15.548Z,10.77
2023-05-02T01:20:44.737Z,10.23
2023-05-02T01:23:25.864Z,9.35
2023-05-02T01:26:17.976Z,9.80
2023-05-02T01:28:58.898Z,9.63
2023-05-02T01:31:27.813Z,9.10
2023-05-02T01:33:56.725Z,7.55
2023-05-02T01:36:26.998Z,7.95
2023-05-02T01:38:55.757Z,6.78
2023-05-02T01:41:26.218Z,5.57
2023-05-02T01:43:55.845Z,4.82
2023-05-02T01:46:22.485Z,4.32
2023-05-02T01:48:52.409Z,4.05
2023-05-02T01:51:21.506Z,4.07
2023-05-02T01:53:50.354Z,4.17
2023-05-02T01:56:18.760Z,4.70
2023-05-02T01:58:47.643Z,3.63
2023-05-02T02:01:16.350Z,3.53
2023-05-02T02:03:43.441Z,3.55
2023-05-02T02:06:11.516Z,3.00
2023-05-02T02:08:38.683Z,3.35
2023-05-02T02:11:10.722Z,2.83
2023-05-02T02:13:45.052Z,2.60
2023-05-02T02:16:14.181Z,2.80
2023-05-02T02:18:44.737Z,3.00
2023-05-02T02:21:11.986Z,3.53
2023-05-02T02:23:39.890Z,2.35
2023-05-02T02:26:07.597Z,2.97
2023-05-02T02:28:34.635Z,2.85
2023-05-02T02:31:01.413Z,3.00
2023-05-02T02:33:31.276Z,2.42
2023-05-02T02:36:13.231Z,2.42
2023-05-02T02:39:02.860Z,2.42
2023-05-02T02:41:39.787Z,2.35
2023-05-02T02:44:20.183Z,2.33
2023-05-02T02:47:34.878Z,2.08
2023-05-02T02:50:07.508Z,2.15
2023-05-02T02:52:53.921Z,2.30
2023-05-02T02:55:34.397Z,1.85
2023-05-02T02:58:08.852Z,1.70
2023-05-02T03:00:35.719Z,1.73
2023-05-02T03:03:02.370Z,1.80
2023-05-02T03:05:29.636Z,2.00
2023-05-02T03:07:58.955Z,2.05
2023-05-02T03:10:25.490Z,1.70
2023-05-02T03:12:55.577Z,2.13
2023-05-02T03:15:26.374Z,1.80
2023-05-02T03:17:53.083Z,2.00
2023-05-02T03:20:19.716Z,1.50
2023-05-02T03:22:46.355Z,1.30
2023-05-02T03:25:13.024Z,1.80
2023-05-02T03:27:43.643Z,1.83
2023-05-02T03:30:11.560Z,1.40
2023-05-02T03:32:38.205Z,1.70
2023-05-02T03:35:05.798Z,1.63
2023-05-02T03:37:39.043Z,1.80
2023-05-02T03:40:06.376Z,1.50
2023-05-02T03:42:39.851Z,1.63
2023-05-02T03:45:10.960Z,1.73
2023-05-02T03:47:37.583Z,1.70
2023-05-02T03:50:04.414Z,2.30
2023-05-02T03:52:33.976Z,2.50
2023-05-02T03:55:01.567Z,1.83
2023-05-02T03:57:32.431Z,2.15
2023-05-02T04:00:00.666Z,1.90
2023-05-02T04:02:38.505Z,2.40
2023-05-02T04:05:08.697Z,3.22
2023-05-02T04:07:36.802Z,2.10
2023-05-02T04:10:06.968Z,2.00
2023-05-02T04:12:39.041Z,2.13
2023-05-02T04:15:06.918Z,1.98
2023-05-02T04:17:33.894Z,2.42
2023-05-02T04:20:03.164Z,2.40
2023-05-02T04:22:33.287Z,2.42
2023-05-02T04:25:03.409Z,1.83
2023-05-02T04:27:31.766Z,2.00
2023-05-02T04:29:59.424Z,2.42
2023-05-02T04:32:27.051Z,2.50
2023-05-02T04:34:54.922Z,2.42
2023-05-02T04:37:23.064Z,2.33
2023-05-02T04:39:50.050Z,2.08
2023-05-02T04:42:23.885Z,2.40
2023-05-02T04:45:09.120Z,2.40
2023-05-02T04:47:35.731Z,2.30
2023-05-02T04:50:02.573Z,2.53
2023-05-02T04:52:30.238Z,2.35
2023-05-02T04:54:57.120Z,2.70
2023-05-02T04:57:23.874Z,2.78
2023-05-02T04:59:55.365Z,2.42
2023-05-02T05:02:21.959Z,2.00
2023-05-02T05:04:49.172Z,2.33
2023-05-02T05:07:16.613Z,2.00
2023-05-02T05:09:45.817Z,2.60
2023-05-02T05:12:12.379Z,2.45
2023-05-02T05:14:38.957Z,2.37
2023-05-02T05:17:06.032Z,2.13
2023-05-02T05:19:33.028Z,2.70
2023-05-02T05:21:59.556Z,2.20
2023-05-02T05:24:26.252Z,2.30
2023-05-02T05:26:55.497Z,2.80
2023-05-02T05:29:22.374Z,2.65
2023-05-02T05:31:48.984Z,2.33
2023-05-02T05:34:18.228Z,2.13
2023-05-02T05:36:48.147Z,2.17
2023-05-02T05:39:15.445Z,2.10
2023-05-02T05:41:43.989Z,2.65
2023-05-02T05:44:13.718Z,2.95
2023-05-02T05:46:40.308Z,1.98
2023-05-02T05:49:09.484Z,2.33
2023-05-02T05:51:36.977Z,2.27
2023-05-02T05:54:03.809Z,2.60
2023-05-02T05:56:31.046Z,1.67
2023-05-02T05:59:05.388Z,2.53
2023-05-02T06:01:32.141Z,3.70
2023-05-02T06:03:59.237Z,2.43
2023-05-02T06:06:27.442Z,2.42
2023-05-02T06:08:54.284Z,2.33
2023-05-02T06:11:21.096Z,2.72
2023-05-02T06:13:47.608Z,1.70
2023-05-02T06:16:14.492Z,1.63
2023-05-02T06:18:41.256Z,1.75
2023-05-02T06:21:07.818Z,1.50
2023-05-02T06:23:35.692Z,1.70
2023-05-02T06:26:04.058Z,1.98
2023-05-02T06:28:31.420Z,1.60
2023-05-02T06:31:03.010Z,1.30
2023-05-02T06:33:30.348Z,1.25
2023-05-02T06:35:59.186Z,1.15
2023-05-02T06:38:27.360Z,1.45
2023-05-02T06:40:56.482Z,1.37
2023-05-02T06:43:23.657Z,1.35
2023-05-02T06:45:54.323Z,1.30
2023-05-02T06:48:21.672Z,1.40
2023-05-02T06:50:49.131Z,1.25
2023-05-02T06:53:16.353Z,1.17
2023-05-02T06:55:44.089Z,1.00
2023-05-02T06:58:10.853Z,1.17
2023-05-02T07:00:37.411Z,1.02
2023-05-02T07:03:04.037Z,1.80
2023-05-02T07:05:31.173Z,1.03
2023-05-02T07:07:57.649Z,0.85
2023-05-02T07:10:24.130Z,1.55
2023-05-02T07:12:50.598Z,1.15
2023-05-02T07:15:17.383Z,1.00
2023-05-02T07:17:44.116Z,0.93
2023-05-02T07:20:11.675Z,0.70
2023-05-02T07:22:38.360Z,0.90
2023-05-02T07:25:05.247Z,2.00
2023-05-02T07:27:31.714Z,1.33
2023-05-02T07:29:58.465Z,0.77
2023-05-02T07:32:26.689Z,0.80
2023-05-02T07:34:54.366Z,1.27
2023-05-02T07:37:21.322Z,0.55
2023-05-02T07:39:47.860Z,0.90
2023-05-02T07:42:14.588Z,0.80
2023-05-02T07:44:41.510Z,0.90
2023-05-02T07:47:08.838Z,0.63
2023-05-02T07:49:36.805Z,0.73
2023-05-02T07:52:04.384Z,1.05
2023-05-02T07:54:30.979Z,0.73
2023-05-02T07:57:02.047Z,0.90
2023-05-02T07:59:29.798Z,1.48
2023-05-02T08:01:56.330Z,1.20
2023-05-02T08:04:22.894Z,1.25
2023-05-02T08:06:49.834Z,0.67
2023-05-02T08:09:16.543Z,1.02
2023-05-02T08:11:43.043Z,1.10
2023-05-02T08:14:09.506Z,0.90
2023-05-02T08:16:36.049Z,0.68
2023-05-02T08:19:02.699Z,0.90
2023-05-02T08:21:29.277Z,0.75
2023-05-02T08:23:58.636Z,1.00
2023-05-02T08:26:25.166Z,1.10
2023-05-02T08:28:52.237Z,0.80
2023-05-02T08:31:18.987Z,0.60
2023-05-02T08:33:46.014Z,0.73
2023-05-02T08:36:14.032Z,0.77
2023-05-02T08:38:41.966Z,0.70
2023-05-02T08:41:12.050Z,0.80
2023-05-02T08:43:39.788Z,0.60
2023-05-02T08:46:09.807Z,1.00
2023-05-02T08:48:37.135Z,0.80
2023-05-02T08:51:04.799Z,1.08
2023-05-02T08:53:35.222Z,1.15
2023-05-02T08:56:02.114Z,0.90
2023-05-02T08:58:30.569Z,1.40
2023-05-02T09:01:01.371Z,1.02
2023-05-02T09:03:34.609Z,0.93
2023-05-02T09:06:12.980Z,0.77
2023-05-02T09:08:40.675Z,1.40
2023-05-02T09:11:08.781Z,1.00
2023-05-02T09:13:49.529Z,0.70
2023-05-02T09:16:25.219Z,1.23
2023-05-02T09:18:54.197Z,1.35
2023-05-02T09:21:28.140Z,1.30
2023-05-02T09:23:56.919Z,1.60
2023-05-02T09:26:29.516Z,1.17
2023-05-02T09:28:59.227Z,1.15
2023-05-02T09:31:49.829Z,1.30
2023-05-02T09:34:18.273Z,1.10
2023-05-02T09:36:47.008Z,1.23
2023-05-02T09:39:15.964Z,1.15
2023-05-02T09:41:43.051Z,1.10
2023-05-02T09:44:15.064Z,1.30
2023-05-02T09:46:52.229Z,1.40
2023-05-02T09:49:19.655Z,1.10
2023-05-02T09:51:47.944Z,1.17
2023-05-02T09:54:15.288Z,1.38
2023-05-02T09:56:56.699Z,1.95
2023-05-02T09:59:24.276Z,1.43
2023-05-02T10:01:59.157Z,1.20
2023-05-02T10:04:26.806Z,1.38
2023-05-02T10:06:54.585Z,1.90
2023-05-02T10:09:22.115Z,1.50
2023-05-02T10:11:54.170Z,1.73
2023-05-02T10:14:22.588Z,1.60
2023-05-02T10:17:04.928Z,1.90
2023-05-02T10:19:44.535Z,1.73
2023-05-02T10:22:12.785Z,1.55
2023-05-02T10:24:41.117Z,1.90
2023-05-02T10:27:08.355Z,1.50
2023-05-02T10:29:36.024Z,1.50
2023-05-02T10:32:04.788Z,1.65
2023-05-02T10:34:33.788Z,1.58
2023-05-02T10:37:03.126Z,1.37
2023-05-02T10:39:30.244Z,1.52
2023-05-02T10:41:58.924Z,1.92
2023-05-02T10:44:35.479Z,1.50
2023-05-02T10:47:17.796Z,1.48
2023-05-02T10:50:01.438Z,1.50
2023-05-02T10:52:36.775Z,1.50
2023-05-02T10:55:23.375Z,1.48
2023-05-02T10:57:59.133Z,1.40
2023-05-02T11:00:30.078Z,1.60
2023-05-02T11:02:56.906Z,1.57
2023-05-02T11:05:24.611Z,1.73
2023-05-02T11:08:19.281Z,1.35
2023-05-02T11:10:47.282Z,1.27
2023-05-02T11:13:13.867Z,1.58
2023-05-02T11:15:40.310Z,1.87
2023-05-02T11:18:14.536Z,1.63
2023-05-02T11:20:43.150Z,1.40
2023-05-02T11:23:15.582Z,1.77
2023-05-02T11:25:44.064Z,1.48
2023-05-02T11:28:39.278Z,1.60
2023-05-02T11:31:07.338Z,2.25
2023-05-02T11:33:33.832Z,1.70
2023-05-02T11:36:00.509Z,1.83
2023-05-02T11:38:36.036Z,1.75
2023-05-02T11:41:04.233Z,1.63
2023-05-02T11:43:32.166Z,1.80
2023-05-02T11:46:00.693Z,1.50
2023-05-02T11:48:27.949Z,1.98
2023-05-02T11:51:02.300Z,1.63
2023-05-02T11:53:29.567Z,2.10
2023-05-02T11:55:58.398Z,1.55
2023-05-02T11:58:29.874Z,2.03
2023-05-02T12:00:57.301Z,1.80
2023-05-02T12:03:27.149Z,2.03
2023-05-02T12:05:54.017Z,2.00
2023-05-02T12:08:28.354Z,1.75
2023-05-02T12:10:56.451Z,2.10
2023-05-02T12:13:25.446Z,1.73
2023-05-02T12:15:53.508Z,1.90
2023-05-02T12:18:25.186Z,1.57
2023-05-02T12:20:53.135Z,1.80
2023-05-02T12:23:22.083Z,2.38
2023-05-02T12:25:49.230Z,2.30
2023-05-02T12:28:19.024Z,1.80
2023-05-02T12:30:48.491Z,1.67
2023-05-02T12:33:16.916Z,1.75
2023-05-02T12:35:45.439Z,1.83
2023-05-02T12:38:14.634Z,1.88
2023-05-02T12:40:57.646Z,1.83
2023-05-02T12:43:24.186Z,1.70
2023-05-02T12:45:53.678Z,1.70
2023-05-02T12:48:27.944Z,1.70
2023-05-02T12:50:55.329Z,1.75
2023-05-02T12:53:42.068Z,1.75
2023-05-02T12:56:10.306Z,1.67
2023-05-02T12:58:43.736Z,1.58
2023-05-02T13:01:10.676Z,1.73
2023-05-02T13:03:37.648Z,1.52
2023-05-02T13:06:04.397Z,1.75
2023-05-02T13:08:33.171Z,1.37
2023-05-02T13:11:00.075Z,1.27
2023-05-02T13:13:26.665Z,1.20
2023-05-02T13:15:53.176Z,1.33
2023-05-02T13:18:19.681Z,1.60
2023-05-02T13:20:46.244Z,1.50
2023-05-02T13:23:12.836Z,1.60
2023-05-02T13:25:39.384Z,1.55
2023-05-02T13:28:06.435Z,1.48
2023-05-02T13:30:33.043Z,1.30
2023-05-02T13:32:59.847Z,1.40
2023-05-02T13:35:26.368Z,1.23
2023-05-02T13:37:52.916Z,1.30
2023-05-02T13:40:19.442Z,1.23
2023-05-02T13:42:46.496Z,1.10
2023-05-02T13:45:13.112Z,1.33
2023-05-02T13:47:40.264Z,1.20
2023-05-02T13:50:08.515Z,1.08
2023-05-02T13:52:35.014Z,1.23
2023-05-02T13:55:01.545Z,1.45
2023-05-02T13:57:28.075Z,1.30
2023-05-02T13:59:54.650Z,1.38
2023-05-02T14:02:22.479Z,1.10
2023-05-02T14:04:49.049Z,1.33
2023-05-02T14:07:15.643Z,1.38
2023-05-02T14:09:42.230Z,1.17
2023-05-02T14:12:08.730Z,1.00
2023-05-02T14:14:37.509Z,1.25
2023-05-02T14:17:05.263Z,1.10
2023-05-02T14:19:32.316Z,1.00
2023-05-02T14:21:59.093Z,1.10
2023-05-02T14:24:25.742Z,1.13
2023-05-02T14:26:52.361Z,0.90
2023-05-02T14:29:19.896Z,1.20
2023-05-02T14:31:46.581Z,1.55
2023-05-02T14:34:13.370Z,1.10
2023-05-02T14:36:39.888Z,1.10
2023-05-02T14:39:06.430Z,1.00
2023-05-02T14:41:32.954Z,1.15
2023-05-02T14:43:59.429Z,0.88
2023-05-02T14:46:25.978Z,1.13
2023-05-02T14:48:52.565Z,1.40
2023-05-02T14:51:19.066Z,1.00
2023-05-02T14:53:47.951Z,1.05
2023-05-02T14:56:15.933Z,1.27
2023-05-02T14:58:42.797Z,1.07
2023-05-02T15:01:19.242Z,1.58
2023-05-02T15:04:04.119Z,1.25
2023-05-02T15:06:31.591Z,1.40
2023-05-02T15:08:58.422Z,1.05
2023-05-02T15:11:25.567Z,1.27
2023-05-02T15:13:52.058Z,1.17
2023-05-02T15:16:18.879Z,1.02
2023-05-02T15:18:45.542Z,1.50
2023-05-02T15:21:12.371Z,0.90
2023-05-02T15:23:38.859Z,1.03
2023-05-02T15:26:05.459Z,0.90
2023-05-02T15:28:31.977Z,0.85
2023-05-02T15:30:58.536Z,0.88
2023-05-02T15:33:25.021Z,0.80
2023-05-02T15:35:57.986Z,0.87
2023-05-02T15:38:24.989Z,0.98
2023-05-02T15:40:58.703Z,0.95
2023-05-02T15:43:25.639Z,1.20
2023-05-02T15:45:56.311Z,0.70
2023-05-02T15:48:24.591Z,0.70
2023-05-02T15:50:52.343Z,0.88
2023-05-02T15:53:20.738Z,0.80
2023-05-02T15:55:47.600Z,1.02
2023-05-02T15:58:14.467Z,0.80
2023-05-02T16:00:41.114Z,0.67
2023-05-02T16:03:07.797Z,0.85
2023-05-02T16:05:35.262Z,1.05
2023-05-02T16:08:01.972Z,0.75
2023-05-02T16:10:28.848Z,0.57
2023-05-02T16:12:55.504Z,0.70
2023-05-02T16:15:22.538Z,0.65
2023-05-02T16:17:49.674Z,0.82
2023-05-02T16:20:17.548Z,1.23
2023-05-02T16:22:46.276Z,0.77
2023-05-02T16:25:13.530Z,0.90
2023-05-02T16:27:40.983Z,1.20
2023-05-02T16:30:08.556Z,1.20
2023-05-02T16:32:37.207Z,0.70
2023-05-02T16:35:08.245Z,0.85
2023-05-02T16:37:35.281Z,0.90
2023-05-02T16:40:02.657Z,0.80
2023-05-02T16:42:29.846Z,0.90
2023-05-02T16:44:57.548Z,0.90
2023-05-02T16:47:24.227Z,0.80
2023-05-02T16:49:58.115Z,0.70
2023-05-02T16:52:25.395Z,0.70
2023-05-02T16:54:52.148Z,0.90
2023-05-02T16:57:19.904Z,0.70
2023-05-02T16:59:51.579Z,1.00
2023-05-02T17:02:20.013Z,0.77
2023-05-02T17:04:46.664Z,0.80
2023-05-02T17:07:13.227Z,0.60
2023-05-02T17:09:41.319Z,0.73
2023-05-02T17:12:11.890Z,0.90
2023-05-02T17:14:42.179Z,0.70
2023-05-02T17:17:09.701Z,0.70
2023-05-02T17:19:36.708Z,0.50
2023-05-02T17:22:04.999Z,0.70
2023-05-02T17:24:31.861Z,0.40
2023-05-02T17:26:58.530Z,0.57
2023-05-02T17:29:25.632Z,0.80
2023-05-02T17:31:52.254Z,0.57
2023-05-02T17:34:18.765Z,0.55
2023-05-02T17:36:46.306Z,0.50
2023-05-02T17:39:13.463Z,0.50
2023-05-02T17:41:40.242Z,0.40
2023-05-02T17:44:06.913Z,0.43
2023-05-02T17:46:33.731Z,0.30
2023-05-02T17:49:00.946Z,0.32
2023-05-02T17:51:27.932Z,0.50
2023-05-02T17:53:54.460Z,0.63
2023-05-02T17:56:21.036Z,0.50
2023-05-02T17:58:47.602Z,0.45
2023-05-02T18:01:14.308Z,0.52
2023-05-02T18:03:41.080Z,0.67
2023-05-02T18:06:07.990Z,0.40
2023-05-02T18:08:34.693Z,0.50
2023-05-02T18:11:02.073Z,0.45
2023-05-02T18:13:28.609Z,0.75
2023-05-02T18:15:59.207Z,0.50
2023-05-02T18:18:25.909Z,0.32
2023-05-02T18:20:52.489Z,0.45
2023-05-02T18:23:19.063Z,0.40
2023-05-02T18:25:45.660Z,0.50
2023-05-02T18:28:13.294Z,0.40
2023-05-02T18:30:40.094Z,0.30
2023-05-02T18:33:08.042Z,0.40
2023-05-02T18:35:35.433Z,0.25
2023-05-02T18:38:02.433Z,0.35
2023-05-02T18:40:29.008Z,0.40
2023-05-02T18:42:55.564Z,0.40
2023-05-02T18:45:22.087Z,0.50
2023-05-02T18:47:50.989Z,0.40
2023-05-02T18:50:18.163Z,0.30
2023-05-02T18:52:44.627Z,0.40
2023-05-02T18:55:11.436Z,0.50
2023-05-02T18:57:38.083Z,0.30
2023-05-02T19:00:06.390Z,0.40
2023-05-02T19:02:33.516Z,0.40
2023-05-02T19:05:00.742Z,0.50
2023-05-02T19:07:27.757Z,0.52
2023-05-02T19:09:54.334Z,0.93
2023-05-02T19:12:20.882Z,0.90
2023-05-02T19:14:50.275Z,0.90
2023-05-02T19:17:16.908Z,0.90
2023-05-02T19:19:43.488Z,0.60
2023-05-02T19:22:10.002Z,1.20
2023-05-02T19:24:36.582Z,1.00
2023-05-02T19:27:06.715Z,0.77
2023-05-02T19:29:34.141Z,1.13
2023-05-02T19:32:01.119Z,0.65
2023-05-02T19:34:28.233Z,0.77
2023-05-02T19:36:54.916Z,0.65
2023-05-02T19:39:21.408Z,0.77
2023-05-02T19:41:49.914Z,0.53
2023-05-02T19:44:17.930Z,1.02
2023-05-02T19:46:44.497Z,0.52
2023-05-02T19:49:11.102Z,0.60
2023-05-02T19:51:37.686Z,0.50
2023-05-02T19:54:04.534Z,0.80
2023-05-02T19:56:31.126Z,0.57
2023-05-02T19:58:58.618Z,0.50
2023-05-02T20:01:26.462Z,0.50
2023-05-02T20:03:53.279Z,0.50
2023-05-02T20:06:19.878Z,0.50
2023-05-02T20:08:46.543Z,0.60
2023-05-02T20:11:13.060Z,1.00
2023-05-02T20:13:39.614Z,0.98
2023-05-02T20:16:07.481Z,0.90
2023-05-02T20:18:34.073Z,0.77
2023-05-02T20:21:00.716Z,0.60
2023-05-02T20:23:27.238Z,0.50
2023-05-02T20:25:54.346Z,0.60
2023-05-02T20:28:20.865Z,0.50
2023-05-02T20:30:47.446Z,0.63
2023-05-02T20:33:16.709Z,0.55
2023-05-02T20:35:45.248Z,0.80
2023-05-02T20:38:12.039Z,0.73
2023-05-02T20:40:43.334Z,0.50
2023-05-02T20:43:10.102Z,0.63
2023-05-02T20:45:36.755Z,0.70
2023-05-02T20:48:03.555Z,0.70
2023-05-02T20:50:30.463Z,0.60
2023-05-02T20:52:57.273Z,0.40
2023-05-02T20:55:24.399Z,0.50
2023-05-02T20:57:52.881Z,1.00
2023-05-02T21:00:22.364Z,0.80
2023-05-02T21:02:49.113Z,1.13
2023-05-02T21:05:16.170Z,0.80
2023-05-02T21:07:42.791Z,0.73
2023-05-02T21:10:10.367Z,0.80
2023-05-02T21:12:36.877Z,1.23
2023-05-02T21:15:03.522Z,0.93
2023-05-02T21:17:30.003Z,0.80
2023-05-02T21:19:56.608Z,0.60
2023-05-02T21:22:23.253Z,0.63
2023-05-02T21:24:50.286Z,0.90
2023-05-02T21:27:16.935Z,0.60
2023-05-02T21:29:43.558Z,0.90
2023-05-02T21:32:10.351Z,0.80
2023-05-02T21:34:37.263Z,1.08
2023-05-02T21:37:04.062Z,0.85
2023-05-02T21:39:30.598Z,0.90
2023-05-02T21:41:57.175Z,0.85
2023-05-02T21:44:23.713Z,0.77
2023-05-02T21:46:51.023Z,0.77
2023-05-02T21:49:17.558Z,0.90
2023-05-02T21:51:44.257Z,0.88
2023-05-02T21:54:10.776Z,0.80
2023-05-02T21:56:37.594Z,0.70
2023-05-02T21:59:04.091Z,0.90
2023-05-02T22:01:30.815Z,0.80
2023-05-02T22:03:57.997Z,0.82
2023-05-02T22:06:25.115Z,0.80
2023-05-02T22:08:51.881Z,1.20
2023-05-02T22:11:18.417Z,1.27
2023-05-02T22:13:44.968Z,0.95
2023-05-02T22:16:11.554Z,0.73
2023-05-02T22:18:39.202Z,1.00
2023-05-02T22:21:08.012Z,1.17
2023-05-02T22:23:34.576Z,1.00
2023-05-02T22:26:01.116Z,0.80
2023-05-02T22:28:27.703Z,0.80
2023-05-02T22:30:54.822Z,0.65
2023-05-02T22:33:21.576Z,0.90
2023-05-02T22:35:48.099Z,1.23
2023-05-02T22:38:18.481Z,1.30
2023-05-02T22:40:45.037Z,0.90
2023-05-02T22:43:11.643Z,1.23
2023-05-02T22:45:38.365Z,1.00
2023-05-02T22:48:06.797Z,1.10
2023-05-02T22:50:33.815Z,1.08
2023-05-02T22:53:02.140Z,1.30
2023-05-02T22:55:28.638Z,1.00
2023-05-02T22:57:55.239Z,1.13
2023-05-02T23:00:23.403Z,1.50
2023-05-02T23:02:50.143Z,1.20
2023-05-02T23:05:16.796Z,1.00
2023-05-02T23:07:43.644Z,1.23
2023-05-02T23:10:10.362Z,1.50
2023-05-02T23:12:36.870Z,1.20
2023-05-02T23:15:03.717Z,1.20
2023-05-02T23:17:30.252Z,0.90
2023-05-02T23:19:57.350Z,1.80
2023-05-02T23:22:24.095Z,1.60
2023-05-02T23:24:50.657Z,1.13
2023-05-02T23:27:17.170Z,1.13
2023-05-02T23:29:43.696Z,1.30
2023-05-02T23:32:10.305Z,1.30
2023-05-02T23:34:37.124Z,1.20
2023-05-02T23:37:06.040Z,0.90
2023-05-02T23:39:33.370Z,1.17
2023-05-02T23:42:00.639Z,1.10
2023-05-02T23:44:27.188Z,1.20
2023-05-02T23:46:53.769Z,1.20
2023-05-02T23:49:21.523Z,1.50
2023-05-02T23:51:48.188Z,1.30
2023-05-02T23:54:14.750Z,1.20
2023-05-02T23:56:41.260Z,1.10
2023-05-02T23:59:07.730Z,1.50
